Selfridge Angb Airport
KMTC : now visible

Airfield :











YOU CAN JOIN US ON...

 
LOGIN :

Register | Disclaimer

   EN    FR    IT 

 









Legend :    VFR   Marginal VFR   IFR   Intensive IFR   Very Intensive IFR
Visi :
Ceiling :
>= 8 km
>= 3000ft
5 to 8 km
1000 to 3000 ft
1500m to 5 km
500 to 1000 ft
800 to 1500m
200 to 500 ft
< 800m
< 200 ft
Symbols :   Thunderstorms  Fog  Heavy snow  Heavy precipitations  Wind > 20 kt






- Airport Elevation : 580 ft


KMTC - Selfridge Angb

CURRENT METAR :
  • 120256Z 28005KT 12SM CLR M07/M12 A3052 RMK AO2A SLP350 T10741123 52015 $

EXPIRED METARs :
  • 120155Z 26010KT 12SM CLR M07/M12 A3051 RMK AO2A SLP347 T10681125 $
  • 120055Z 26007G16KT 12SM CLR M07/M13 A3049 RMK AO2A SLP341 T10661129 $

TAF TAF KMTC
Valid from the 12 at 01:00 until the 13 at 07:00 UTC


120100Z 1201/1307 25009KT 9999 SKC QNH3045INS
BECMG 1208/1209 20009KT 9999 SCT080 QNH3034INS
BECMG 1216/1217 18012G18KT 9999 SCT080 QNH3013INS TXM01/1217Z TNM07/1205Z LAST NO AMDS AFT 1204 NEXT 1209



MET'MAP, your aeronautical weather chart ! - Copyright ORBIFLY December 2007 - Disclaimer

ORBIFLY MET'MAP TEAM :

Programming & Development : Alexandra Zaïnal
Concept & original design : Baudouin d'Aumeries
Assistance for programming : Marc-Olivier Méhu
Technical & hardware support : Manuel Goepfert

Contact : metmap@orbifly.com




SOURCES & CREDITS :

   NOAA       Earth
Advisory